Corsicana, TX (75109)

8:01 PM CST on February 08, 2016 (GMT -0600)
Bowie - Collins School area | | Change Station
CLOSE
Current Station
Personal Weather Station
Location: Corsicana, TX
Elevation: 433 ft
Nearby Weather Stations

Elev 433 ft 32.11 °N, 96.49 °W | Updated 1 second ago

Clear
Clear
50.5 °F
Feels Like 50.5 °F
N
1.3
Wind Variable Wind from West
Gusts 2.5 mph

Today
High -- | Low -- °F
--% Chance of Precip.
Yesterday
High -- | Low -- °F
Precip. -- in
Pressure 30.28 in
Visibility 10.0 miles
Clouds Clear
Dew Point 16 °F
Humidity 25%
Rainfall 0.00 in
Snow Depth Not available.
7:14 AM 6:05 PM
New Moon, 0% visible
METAR KCRS 090153Z AUTO 32008KT 10SM CLR 09/M11 A3027 RMK AO2 SLP252 T00891111
Pressure 30.28 in
Visibility 10.0 miles
Clouds Clear
Dew Point 16 °F
Humidity 25%
Rainfall 0.00 in
Snow Depth Not available.
7:14 AM 6:05 PM
New Moon, 0% visible
METAR KCRS 090153Z AUTO 32008KT 10SM CLR 09/M11 A3027 RMK AO2 SLP252 T00891111

10-Day Weather Forecast

Almanac

Astronomy

Feb. 08, 2016 Rise Set
Actual Time
Civil Twilight
Nautical Twilight
Astronomical Twilight
Moon
Length of Visible Light
Length of Day
Tomorrow will be .
, % of the Moon is Illuminated

Today's Extremes

State Highs State Lows

Community

WunderPhotos

Upload Photos

1,891,527 photos uploaded!

WunderBlog® & News

Nearby

Air Quality

  Air Quality AQ Index Pollutant
Not available.

Snow Depth

Station Depth Elevation

Earthquake Activity

City Distance Mag. Time & Date
Minimum magnitude displayed is 2.5.

Coastal Water Temperatures

Place Temperature

Stations

Nearby Weather Stations

Station Location Temp. Windchill Dew Point Humidity Wind Precip. Elev Updated Type
                   

Watches & Warnings

There are currently no watches in effect.